createdAt,value
2022-11-27T00:01:24.519Z,4.72
2022-11-27T00:03:53.808Z,4.79
2022-11-27T00:06:23.219Z,4.81
2022-11-27T00:08:51.091Z,4.76
2022-11-27T00:11:21.397Z,4.78
2022-11-27T00:13:49.863Z,4.69
2022-11-27T00:16:18.489Z,4.53
2022-11-27T00:18:46.655Z,4.52
2022-11-27T00:21:16.439Z,4.57
2022-11-27T00:23:44.365Z,4.57
2022-11-27T00:26:14.420Z,4.50
2022-11-27T00:28:42.292Z,4.60
2022-11-27T00:31:16.168Z,4.59
2022-11-27T00:33:44.485Z,4.66
2022-11-27T00:36:13.147Z,4.71
2022-11-27T00:38:40.664Z,4.77
2022-11-27T00:41:28.749Z,4.80
2022-11-27T00:43:56.648Z,4.80
2022-11-27T00:46:28.961Z,4.87
2022-11-27T00:48:58.346Z,4.90
2022-11-27T00:51:27.176Z,4.97
2022-11-27T00:53:55.156Z,5.00
2022-11-27T00:56:28.303Z,5.04
2022-11-27T00:58:56.685Z,5.08
2022-11-27T01:01:30.085Z,5.11
2022-11-27T01:03:58.735Z,5.14
2022-11-27T01:06:27.144Z,5.17
2022-11-27T01:08:54.613Z,5.19
2022-11-27T01:11:29.146Z,5.21
2022-11-27T01:13:59.312Z,5.19
2022-11-27T01:16:28.229Z,5.09
2022-11-27T01:19:00.086Z,5.06
2022-11-27T01:21:31.084Z,4.87
2022-11-27T01:23:59.298Z,4.84
2022-11-27T01:26:27.431Z,4.80
2022-11-27T01:28:56.598Z,4.79
2022-11-27T01:31:27.811Z,4.75
2022-11-27T01:33:58.684Z,4.76
2022-11-27T01:36:26.655Z,4.77
2022-11-27T01:38:54.581Z,4.81
2022-11-27T01:41:31.118Z,4.83
2022-11-27T01:44:01.182Z,4.87
2022-11-27T01:46:32.360Z,4.90
2022-11-27T01:49:12.031Z,4.84
2022-11-27T01:51:56.885Z,4.84
2022-11-27T01:54:27.572Z,4.88
2022-11-27T01:56:57.072Z,4.89
2022-11-27T01:59:24.996Z,4.99
2022-11-27T02:01:52.597Z,5.05
2022-11-27T02:04:20.389Z,5.08
2022-11-27T02:06:48.169Z,5.11
2022-11-27T02:09:15.864Z,5.11
2022-11-27T02:11:55.867Z,5.11
2022-11-27T02:14:26.548Z,5.11
2022-11-27T02:16:56.936Z,5.10
2022-11-27T02:19:49.149Z,5.10
2022-11-27T02:22:54.082Z,5.08
2022-11-27T02:25:32.099Z,5.07
2022-11-27T02:28:24.055Z,5.06
2022-11-27T02:31:06.130Z,5.05
2022-11-27T02:33:35.456Z,5.00
2022-11-27T02:36:10.139Z,4.96
2022-11-27T02:39:15.004Z,4.94
2022-11-27T02:41:49.473Z,4.85
2022-11-27T02:44:17.952Z,4.82
2022-11-27T02:46:46.964Z,4.84
2022-11-27T02:49:17.162Z,4.88
2022-11-27T02:51:53.617Z,4.95
2022-11-27T02:54:25.317Z,4.83
2022-11-27T02:56:54.038Z,4.94
2022-11-27T02:59:24.265Z,4.96
2022-11-27T03:01:55.875Z,4.99
2022-11-27T03:04:28.601Z,4.99
2022-11-27T03:07:02.378Z,4.98
2022-11-27T03:09:40.132Z,4.94
2022-11-27T03:12:09.138Z,4.94
2022-11-27T03:14:38.588Z,4.78
2022-11-27T03:17:16.346Z,4.63
2022-11-27T03:19:58.285Z,4.43
2022-11-27T03:22:27.962Z,4.50
2022-11-27T03:24:55.796Z,4.67
2022-11-27T03:27:31.059Z,4.70
2022-11-27T03:30:02.401Z,4.70
2022-11-27T03:32:31.204Z,4.74
2022-11-27T03:34:59.024Z,4.76
2022-11-27T03:37:26.913Z,4.75
2022-11-27T03:39:54.572Z,4.72
2022-11-27T03:42:30.616Z,4.74
2022-11-27T03:45:25.785Z,4.63
2022-11-27T03:48:21.267Z,4.52
2022-11-27T03:51:10.751Z,4.58
2022-11-27T03:53:54.150Z,4.47
2022-11-27T03:56:45.589Z,4.40
2022-11-27T03:59:36.157Z,4.40
2022-11-27T04:02:03.733Z,4.58
2022-11-27T04:04:31.464Z,4.66
2022-11-27T04:06:58.991Z,4.69
2022-11-27T04:09:26.520Z,4.71
2022-11-27T04:11:54.301Z,4.70
2022-11-27T04:14:21.727Z,4.72
2022-11-27T04:16:49.246Z,4.70
2022-11-27T04:19:17.077Z,4.73
2022-11-27T04:21:44.530Z,4.76
2022-11-27T04:24:11.983Z,4.78
2022-11-27T04:26:39.774Z,4.82
2022-11-27T04:29:07.262Z,4.81
2022-11-27T04:31:34.834Z,4.78
2022-11-27T04:34:02.547Z,4.82
2022-11-27T04:36:32.565Z,4.80
2022-11-27T04:39:03.902Z,4.80
2022-11-27T04:41:31.595Z,4.78
2022-11-27T04:43:59.049Z,4.84
2022-11-27T04:46:26.903Z,4.72
2022-11-27T04:48:54.727Z,4.79
2022-11-27T04:51:22.231Z,4.79
2022-11-27T04:53:49.985Z,4.78
2022-11-27T04:56:17.555Z,4.76
2022-11-27T04:58:44.983Z,4.75
2022-11-27T05:01:13.162Z,4.77
2022-11-27T05:03:40.803Z,4.75
2022-11-27T05:06:08.196Z,4.71
2022-11-27T05:08:35.907Z,4.64
2022-11-27T05:11:10.202Z,4.72
2022-11-27T05:13:37.996Z,4.54
2022-11-27T05:16:06.237Z,4.50
2022-11-27T05:18:33.916Z,4.52
2022-11-27T05:21:04.480Z,4.59
2022-11-27T05:23:32.532Z,4.60
2022-11-27T05:26:00.398Z,4.61
2022-11-27T05:28:28.286Z,4.68
2022-11-27T05:30:55.839Z,4.64
2022-11-27T05:33:23.382Z,4.60
2022-11-27T05:35:51.343Z,4.62
2022-11-27T05:38:19.190Z,4.68
2022-11-27T05:40:46.732Z,4.71
2022-11-27T05:43:14.475Z,4.76
2022-11-27T05:45:42.298Z,4.77
2022-11-27T05:48:09.859Z,4.75
2022-11-27T05:50:37.628Z,4.74
2022-11-27T05:53:05.304Z,4.80
2022-11-27T05:55:32.841Z,4.66
2022-11-27T05:58:00.615Z,4.68
2022-11-27T06:00:28.193Z,4.61
2022-11-27T06:02:56.697Z,4.61
2022-11-27T06:05:24.360Z,4.69
2022-11-27T06:07:51.985Z,4.75
2022-11-27T06:10:19.871Z,4.70
2022-11-27T06:12:47.297Z,4.60
2022-11-27T06:15:14.887Z,4.56
2022-11-27T06:17:42.681Z,4.58
2022-11-27T06:20:11.274Z,4.64
2022-11-27T06:22:40.483Z,4.58
2022-11-27T06:25:08.648Z,4.65
2022-11-27T06:27:36.561Z,4.71
2022-11-27T06:30:06.141Z,4.71
2022-11-27T06:32:34.386Z,4.77
2022-11-27T06:35:01.859Z,4.83
2022-11-27T06:37:29.489Z,4.86
2022-11-27T06:39:58.901Z,4.87
2022-11-27T06:42:30.041Z,4.89
2022-11-27T06:44:58.144Z,4.92
2022-11-27T06:47:25.746Z,4.92
2022-11-27T06:49:53.205Z,4.89
2022-11-27T06:52:21.161Z,4.91
2022-11-27T06:54:48.784Z,4.89
2022-11-27T06:57:16.539Z,4.93
2022-11-27T06:59:44.460Z,4.82
2022-11-27T07:02:14.649Z,4.81
2022-11-27T07:04:42.438Z,4.84
2022-11-27T07:07:10.586Z,4.85
2022-11-27T07:09:38.717Z,4.90
2022-11-27T07:12:06.371Z,4.86
2022-11-27T07:14:34.214Z,4.88
2022-11-27T07:17:01.810Z,4.85
2022-11-27T07:19:29.236Z,4.83
2022-11-27T07:21:56.929Z,4.88
2022-11-27T07:24:24.765Z,4.93
2022-11-27T07:26:52.257Z,4.79
2022-11-27T07:29:20.038Z,4.82
2022-11-27T07:31:48.057Z,4.72
2022-11-27T07:34:21.239Z,4.60
2022-11-27T07:36:49.549Z,4.74
2022-11-27T07:39:25.174Z,4.84
2022-11-27T07:42:16.749Z,4.91
2022-11-27T07:44:49.288Z,4.97
2022-11-27T07:47:17.072Z,5.02
2022-11-27T07:49:46.701Z,4.98
2022-11-27T07:52:14.246Z,4.90
2022-11-27T07:54:42.411Z,4.97
2022-11-27T07:57:10.038Z,5.06
2022-11-27T07:59:37.678Z,5.09
2022-11-27T08:02:05.431Z,5.12
2022-11-27T08:04:33.312Z,5.16
2022-11-27T08:07:00.959Z,5.00
2022-11-27T08:09:29.969Z,5.04
2022-11-27T08:11:57.816Z,5.16
2022-11-27T08:14:25.269Z,5.18
2022-11-27T08:16:52.831Z,5.24
2022-11-27T08:19:20.699Z,5.27
2022-11-27T08:21:48.150Z,5.31
2022-11-27T08:24:15.753Z,5.34
2022-11-27T08:26:43.576Z,5.34
2022-11-27T08:29:12.066Z,5.36
2022-11-27T08:31:39.915Z,5.36
2022-11-27T08:34:07.945Z,5.40
2022-11-27T08:36:35.459Z,5.35
2022-11-27T08:39:03.011Z,5.38
2022-11-27T08:41:30.775Z,5.41
2022-11-27T08:43:58.636Z,5.37
2022-11-27T08:46:26.192Z,5.44
2022-11-27T08:48:54.041Z,5.40
2022-11-27T08:51:21.506Z,5.50
2022-11-27T08:53:49.801Z,5.53
2022-11-27T08:56:23.334Z,5.57
2022-11-27T08:58:52.637Z,5.60
2022-11-27T09:01:25.694Z,5.65
2022-11-27T09:03:53.687Z,5.64
2022-11-27T09:06:24.451Z,5.64
2022-11-27T09:08:52.215Z,5.57
2022-11-27T09:11:20.397Z,5.57
2022-11-27T09:13:48.700Z,5.27
2022-11-27T09:16:17.921Z,5.44
2022-11-27T09:18:47.202Z,5.58
2022-11-27T09:21:16.418Z,5.64
2022-11-27T09:23:44.369Z,5.69
2022-11-27T09:26:14.532Z,5.66
2022-11-27T09:28:43.983Z,5.69
2022-11-27T09:31:13.823Z,5.70
2022-11-27T09:33:42.158Z,5.72
2022-11-27T09:36:16.587Z,5.70
2022-11-27T09:38:44.451Z,5.76
2022-11-27T09:41:12.048Z,5.75
2022-11-27T09:43:45.968Z,5.74
2022-11-27T09:46:17.671Z,5.64
2022-11-27T09:48:48.660Z,5.68
2022-11-27T09:51:25.895Z,5.65
2022-11-27T09:54:02.628Z,5.67
2022-11-27T09:56:30.761Z,5.65
2022-11-27T09:58:59.781Z,5.72
2022-11-27T10:01:36.482Z,5.73
2022-11-27T10:04:15.827Z,5.76
2022-11-27T10:07:05.530Z,5.38
2022-11-27T10:09:39.336Z,5.57
2022-11-27T10:12:42.238Z,5.54
2022-11-27T10:15:16.335Z,5.58
2022-11-27T10:17:52.145Z,5.48
2022-11-27T10:20:29.751Z,5.72
2022-11-27T10:23:02.159Z,5.80
2022-11-27T10:25:38.778Z,5.85
2022-11-27T10:28:18.290Z,5.75
2022-11-27T10:31:00.863Z,5.56
2022-11-27T10:33:38.828Z,5.54
2022-11-27T10:36:14.119Z,5.65
2022-11-27T10:38:42.061Z,5.82
2022-11-27T10:41:12.140Z,5.89
2022-11-27T10:43:48.865Z,5.91
2022-11-27T10:46:23.141Z,5.94
2022-11-27T10:48:50.871Z,5.97
2022-11-27T10:51:21.585Z,5.97
2022-11-27T10:53:52.744Z,5.94
2022-11-27T10:56:50.029Z,5.97
2022-11-27T10:59:27.693Z,5.88
2022-11-27T11:02:00.998Z,6.00
2022-11-27T11:04:38.879Z,6.01
2022-11-27T11:07:24.767Z,6.03
2022-11-27T11:09:54.358Z,6.00
2022-11-27T11:12:23.605Z,6.06
2022-11-27T11:14:56.082Z,6.07
2022-11-27T11:17:28.540Z,6.07
2022-11-27T11:19:56.120Z,6.07
2022-11-27T11:22:24.603Z,6.13
2022-11-27T11:24:53.451Z,5.99
2022-11-27T11:27:25.600Z,6.10
2022-11-27T11:29:55.615Z,6.06
2022-11-27T11:32:25.793Z,6.08
2022-11-27T11:35:10.926Z,6.07
2022-11-27T11:37:40.101Z,6.07
2022-11-27T11:40:16.216Z,6.08
2022-11-27T11:42:54.100Z,6.08
2022-11-27T11:45:22.828Z,6.07
2022-11-27T11:47:58.668Z,6.08
2022-11-27T11:50:43.764Z,5.99
2022-11-27T11:53:45.433Z,5.96
2022-11-27T11:56:32.348Z,6.03
2022-11-27T11:59:25.111Z,6.04
2022-11-27T12:02:02.036Z,6.07
2022-11-27T12:04:32.577Z,5.98
2022-11-27T12:07:28.008Z,6.00
2022-11-27T12:10:05.305Z,6.09
2022-11-27T12:12:44.218Z,6.11
2022-11-27T12:15:21.606Z,6.14
2022-11-27T12:18:01.391Z,6.12
2022-11-27T12:20:46.566Z,6.18
2022-11-27T12:23:23.237Z,6.07
2022-11-27T12:26:00.663Z,6.05
2022-11-27T12:28:53.234Z,6.12
2022-11-27T12:31:49.891Z,6.15
2022-11-27T12:34:43.108Z,5.91
2022-11-27T12:37:24.206Z,5.80
2022-11-27T12:40:14.489Z,5.96
2022-11-27T12:42:57.925Z,6.07
2022-11-27T12:45:29.675Z,6.12
2022-11-27T12:48:16.235Z,6.18
2022-11-27T12:51:16.909Z,6.20
2022-11-27T12:53:56.262Z,6.21
2022-11-27T12:56:35.608Z,6.24
2022-11-27T12:59:28.118Z,6.27
2022-11-27T13:02:15.820Z,6.24
2022-11-27T13:04:47.256Z,6.13
2022-11-27T13:07:23.004Z,6.15
2022-11-27T13:10:32.922Z,6.22
2022-11-27T13:13:06.871Z,6.26
2022-11-27T13:15:48.011Z,6.30
2022-11-27T13:18:30.986Z,6.28
2022-11-27T13:21:04.731Z,6.31
2022-11-27T13:23:33.153Z,6.36
2022-11-27T13:26:05.148Z,6.34
2022-11-27T13:28:55.499Z,6.34
2022-11-27T13:31:25.699Z,6.26
2022-11-27T13:33:59.090Z,6.28
2022-11-27T13:36:42.045Z,6.32
2022-11-27T13:39:24.065Z,6.30
2022-11-27T13:42:16.749Z,6.27
2022-11-27T13:44:52.689Z,6.27
2022-11-27T13:47:22.619Z,6.19
2022-11-27T13:50:02.494Z,6.18
2022-11-27T13:52:30.714Z,6.18
2022-11-27T13:55:00.273Z,6.10
2022-11-27T13:57:29.024Z,6.08
2022-11-27T14:00:05.547Z,6.01
2022-11-27T14:02:46.729Z,6.01
2022-11-27T14:05:18.107Z,5.99
2022-11-27T14:07:50.921Z,5.98
2022-11-27T14:10:21.799Z,5.99
2022-11-27T14:13:01.749Z,5.98
2022-11-27T14:15:31.183Z,5.98
2022-11-27T14:18:19.890Z,5.87
2022-11-27T14:20:58.487Z,5.84
2022-11-27T14:23:28.364Z,5.88
2022-11-27T14:26:15.228Z,5.85
2022-11-27T14:28:46.236Z,5.79
2022-11-27T14:31:30.736Z,5.77
2022-11-27T14:34:14.732Z,5.78
2022-11-27T14:36:44.178Z,5.78
2022-11-27T14:39:22.286Z,5.74
2022-11-27T14:41:59.892Z,5.76
2022-11-27T14:44:27.949Z,5.73
2022-11-27T14:46:57.568Z,5.74
2022-11-27T14:49:27.081Z,5.73
2022-11-27T14:51:58.168Z,5.73
2022-11-27T14:54:29.942Z,5.71
2022-11-27T14:56:59.029Z,5.67
2022-11-27T14:59:26.858Z,5.69
2022-11-27T15:02:15.935Z,5.71
2022-11-27T15:04:45.008Z,5.72
2022-11-27T15:07:18.016Z,5.70
2022-11-27T15:09:54.422Z,5.74
2022-11-27T15:12:30.220Z,5.75
2022-11-27T15:15:14.214Z,5.70
2022-11-27T15:17:45.582Z,5.64
2022-11-27T15:20:25.891Z,5.41
2022-11-27T15:22:55.689Z,5.63
2022-11-27T15:25:40.044Z,5.64
2022-11-27T15:28:37.796Z,5.68
2022-11-27T15:31:24.876Z,5.64
2022-11-27T15:34:18.457Z,5.59
2022-11-27T15:36:52.150Z,5.64
2022-11-27T15:39:45.883Z,5.65
2022-11-27T15:42:14.817Z,5.68
2022-11-27T15:44:42.674Z,5.64
2022-11-27T15:47:23.465Z,5.69
2022-11-27T15:49:52.187Z,5.69
2022-11-27T15:52:19.898Z,5.65
2022-11-27T15:54:47.544Z,5.66
2022-11-27T15:57:15.212Z,5.68
2022-11-27T15:59:43.858Z,5.65
2022-11-27T16:02:17.460Z,5.64
2022-11-27T16:04:46.190Z,5.64
2022-11-27T16:07:13.727Z,5.65
2022-11-27T16:09:41.890Z,5.64
2022-11-27T16:12:09.825Z,5.55
2022-11-27T16:14:37.458Z,5.40
2022-11-27T16:17:05.102Z,5.36
2022-11-27T16:19:32.865Z,5.39
2022-11-27T16:22:01.199Z,5.39
2022-11-27T16:24:28.729Z,5.36
2022-11-27T16:26:56.535Z,5.25
2022-11-27T16:29:23.974Z,5.28
2022-11-27T16:31:51.849Z,5.24
2022-11-27T16:34:19.861Z,5.27
2022-11-27T16:36:48.402Z,5.20
2022-11-27T16:39:17.144Z,5.17
2022-11-27T16:41:45.362Z,5.19
2022-11-27T16:44:15.071Z,5.25
2022-11-27T16:46:44.581Z,5.32
2022-11-27T16:49:13.355Z,5.36
2022-11-27T16:51:41.813Z,5.40
2022-11-27T16:54:11.942Z,5.41
2022-11-27T16:56:40.945Z,5.39
2022-11-27T16:59:10.397Z,5.41
2022-11-27T17:01:41.175Z,5.42
2022-11-27T17:04:16.788Z,5.39
2022-11-27T17:06:45.086Z,5.39
2022-11-27T17:09:13.375Z,5.40
2022-11-27T17:11:43.927Z,5.41
2022-11-27T17:14:12.026Z,5.38
2022-11-27T17:16:41.666Z,5.34
2022-11-27T17:19:13.891Z,5.21
2022-11-27T17:21:42.118Z,5.14
2022-11-27T17:24:16.471Z,5.14
2022-11-27T17:26:45.340Z,5.12
2022-11-27T17:29:15.415Z,5.19
2022-11-27T17:31:44.278Z,5.24
2022-11-27T17:34:14.759Z,5.25
2022-11-27T17:36:44.693Z,5.23
2022-11-27T17:39:15.305Z,5.26
2022-11-27T17:41:46.839Z,5.23
2022-11-27T17:44:14.848Z,5.15
2022-11-27T17:46:45.038Z,4.95
2022-11-27T17:49:13.047Z,4.85
2022-11-27T17:51:41.484Z,4.84
2022-11-27T17:54:11.109Z,4.82
2022-11-27T17:56:39.417Z,4.80
2022-11-27T17:59:09.699Z,4.67
2022-11-27T18:01:37.872Z,4.77
2022-11-27T18:04:06.319Z,4.77
2022-11-27T18:06:36.073Z,4.74
2022-11-27T18:09:04.705Z,4.76
2022-11-27T18:11:34.061Z,4.87
2022-11-27T18:14:01.912Z,4.94
2022-11-27T18:16:33.045Z,4.96
2022-11-27T18:19:07.271Z,5.00
2022-11-27T18:21:35.631Z,4.98
2022-11-27T18:27:10.558Z,4.78
2022-11-27T18:29:42.053Z,4.79
2022-11-27T18:32:11.313Z,4.82
2022-11-27T18:34:39.874Z,4.81
2022-11-27T18:37:07.737Z,4.89
2022-11-27T18:39:36.142Z,4.93
2022-11-27T18:42:05.163Z,4.99
2022-11-27T18:44:37.347Z,5.06
2022-11-27T18:47:11.463Z,5.09
2022-11-27T18:49:40.744Z,5.14
2022-11-27T18:52:09.310Z,5.16
2022-11-27T18:54:37.589Z,5.18
2022-11-27T18:57:07.117Z,5.15
2022-11-27T18:59:35.411Z,5.16
2022-11-27T19:02:04.493Z,5.03
2022-11-27T19:04:35.886Z,5.09
2022-11-27T19:07:04.016Z,5.11
2022-11-27T19:09:31.625Z,5.12
2022-11-27T19:11:59.363Z,5.12
2022-11-27T19:14:27.817Z,5.08
2022-11-27T19:16:56.468Z,4.94
2022-11-27T19:20:04.462Z,4.95
2022-11-27T19:22:14.302Z,4.94
2022-11-27T19:24:42.392Z,5.03
2022-11-27T19:27:10.638Z,5.08
2022-11-27T19:29:38.774Z,5.11
2022-11-27T19:32:06.708Z,5.14
2022-11-27T19:34:34.884Z,5.13
2022-11-27T19:37:03.013Z,5.13
2022-11-27T19:39:30.788Z,5.12
2022-11-27T19:41:59.192Z,4.96
2022-11-27T19:44:27.278Z,4.85
2022-11-27T19:46:54.945Z,4.80
2022-11-27T19:49:23.899Z,4.84
2022-11-27T19:51:52.098Z,4.88
2022-11-27T19:54:21.811Z,4.88
2022-11-27T19:56:51.551Z,4.94
2022-11-27T19:59:24.416Z,4.95
2022-11-27T20:01:54.149Z,5.04
2022-11-27T20:04:26.303Z,5.04
2022-11-27T20:06:54.164Z,5.07
2022-11-27T20:09:22.349Z,5.04
2022-11-27T20:11:49.936Z,5.06
2022-11-27T20:14:19.493Z,5.06
2022-11-27T20:16:47.969Z,5.06
2022-11-27T20:19:16.104Z,5.03
2022-11-27T20:21:45.562Z,5.06
2022-11-27T20:24:15.122Z,5.02
2022-11-27T20:26:43.452Z,5.04
2022-11-27T20:29:16.448Z,5.00
2022-11-27T20:31:45.304Z,4.96
2022-11-27T20:34:21.865Z,4.87
2022-11-27T20:36:50.271Z,4.77
2022-11-27T20:39:21.672Z,4.64
2022-11-27T20:41:51.886Z,4.55
2022-11-27T20:44:20.355Z,4.54
2022-11-27T20:46:49.073Z,4.54
2022-11-27T20:49:18.189Z,4.46
2022-11-27T20:51:49.003Z,4.39
2022-11-27T20:54:19.067Z,4.34
2022-11-27T20:56:50.244Z,4.34
2022-11-27T20:59:19.228Z,4.27
2022-11-27T21:01:47.295Z,4.35
2022-11-27T21:04:22.363Z,4.38
2022-11-27T21:06:50.938Z,4.42
2022-11-27T21:09:20.710Z,4.29
2022-11-27T21:11:48.752Z,4.31
2022-11-27T21:14:17.178Z,4.25
2022-11-27T21:16:48.589Z,4.26
2022-11-27T21:19:20.085Z,4.22
2022-11-27T21:21:48.568Z,4.15
2022-11-27T21:24:16.348Z,4.22
2022-11-27T21:26:45.064Z,4.23
2022-11-27T21:29:14.977Z,4.20
2022-11-27T21:31:46.781Z,4.20
2022-11-27T21:34:16.012Z,4.24
2022-11-27T21:36:44.491Z,4.27
2022-11-27T21:39:13.967Z,4.25
2022-11-27T21:41:41.804Z,4.28
2022-11-27T21:44:09.935Z,4.16
2022-11-27T21:46:38.352Z,4.19
2022-11-27T21:49:06.320Z,4.20
2022-11-27T21:51:33.825Z,4.14
2022-11-27T21:54:06.545Z,4.06
2022-11-27T21:56:37.654Z,4.13
2022-11-27T21:59:05.902Z,4.09
2022-11-27T22:01:34.097Z,4.05
2022-11-27T22:04:02.705Z,4.06
2022-11-27T22:06:35.032Z,4.01
2022-11-27T22:09:03.682Z,4.02
2022-11-27T22:11:31.419Z,4.08
2022-11-27T22:14:07.347Z,4.04
2022-11-27T22:16:44.149Z,4.06
2022-11-27T22:19:14.337Z,4.07
2022-11-27T22:21:43.475Z,3.92
2022-11-27T22:24:15.046Z,4.08
2022-11-27T22:26:47.760Z,4.01
2022-11-27T22:29:15.247Z,3.99
2022-11-27T22:31:42.909Z,3.92
2022-11-27T22:34:10.824Z,3.95
2022-11-27T22:36:38.785Z,4.01
2022-11-27T22:39:07.585Z,4.08
2022-11-27T22:41:36.935Z,4.09
2022-11-27T22:44:06.257Z,4.15
2022-11-27T22:46:35.681Z,3.99
2022-11-27T22:49:05.864Z,3.97
2022-11-27T22:51:35.780Z,4.12
2022-11-27T22:54:04.901Z,3.99
2022-11-27T22:56:33.905Z,3.94
2022-11-27T22:59:30.416Z,4.01
2022-11-27T23:01:50.117Z,4.08
2022-11-27T23:04:17.808Z,4.15
2022-11-27T23:06:48.269Z,4.06
2022-11-27T23:09:18.200Z,4.15
2022-11-27T23:11:46.124Z,4.15
2022-11-27T23:14:13.547Z,3.91
2022-11-27T23:16:41.485Z,4.03
2022-11-27T23:19:10.046Z,3.93
2022-11-27T23:21:39.086Z,4.00
2022-11-27T23:24:09.666Z,4.03
2022-11-27T23:26:37.288Z,4.08
2022-11-27T23:29:05.112Z,3.98
2022-11-27T23:31:35.379Z,3.90
2022-11-27T23:34:07.595Z,4.01
2022-11-27T23:36:36.357Z,3.94
2022-11-27T23:39:06.565Z,4.04
2022-11-27T23:41:34.135Z,4.06
2022-11-27T23:44:02.322Z,4.01
2022-11-27T23:46:30.918Z,4.10
2022-11-27T23:48:59.797Z,4.12
2022-11-27T23:51:30.184Z,4.21
2022-11-27T23:53:58.260Z,4.30
2022-11-27T23:56:28.702Z,4.30
2022-11-27T23:58:57.451Z,4.30
